sensor_id;sensor_type;location;lat;lon;timestamp;P1;durP1;ratioP1;P2;durP2;ratioP2
48207;SDS011;33997;53.278;9.708;2023-05-31T00:01:53;22.73;;;10.23;;
48207;SDS011;33997;53.278;9.708;2023-05-31T00:04:19;25.10;;;10.45;;
48207;SDS011;33997;53.278;9.708;2023-05-31T00:06:44;25.38;;;10.48;;
48207;SDS011;33997;53.278;9.708;2023-05-31T00:09:10;20.95;;;11.18;;
48207;SDS011;33997;53.278;9.708;2023-05-31T00:11:35;25.23;;;10.68;;
48207;SDS011;33997;53.278;9.708;2023-05-31T00:14:01;25.73;;;11.18;;
48207;SDS011;33997;53.278;9.708;2023-05-31T00:16:26;19.45;;;10.43;;
48207;SDS011;33997;53.278;9.708;2023-05-31T00:18:52;24.90;;;11.65;;
48207;SDS011;33997;53.278;9.708;2023-05-31T00:21:17;26.02;;;10.95;;
48207;SDS011;33997;53.278;9.708;2023-05-31T00:23:43;25.98;;;11.50;;
48207;SDS011;33997;53.278;9.708;2023-05-31T00:26:08;24.73;;;11.35;;
48207;SDS011;33997;53.278;9.708;2023-05-31T00:28:33;24.90;;;11.55;;
48207;SDS011;33997;53.278;9.708;2023-05-31T00:30:59;23.38;;;11.52;;
48207;SDS011;33997;53.278;9.708;2023-05-31T00:33:24;27.73;;;11.57;;
48207;SDS011;33997;53.278;9.708;2023-05-31T00:35:50;28.02;;;12.05;;
48207;SDS011;33997;53.278;9.708;2023-05-31T00:38:15;27.60;;;13.00;;
48207;SDS011;33997;53.278;9.708;2023-05-31T00:40:41;28.77;;;12.43;;
48207;SDS011;33997;53.278;9.708;2023-05-31T00:43:06;33.20;;;14.25;;
48207;SDS011;33997;53.278;9.708;2023-05-31T00:45:33;37.00;;;13.70;;
48207;SDS011;33997;53.278;9.708;2023-05-31T00:47:59;26.27;;;12.82;;
48207;SDS011;33997;53.278;9.708;2023-05-31T00:50:26;28.98;;;12.57;;
48207;SDS011;33997;53.278;9.708;2023-05-31T00:52:52;32.30;;;13.88;;
48207;SDS011;33997;53.278;9.708;2023-05-31T00:55:21;29.02;;;12.82;;
48207;SDS011;33997;53.278;9.708;2023-05-31T00:57:46;35.33;;;13.98;;
48207;SDS011;33997;53.278;9.708;2023-05-31T01:00:12;32.13;;;14.75;;
48207;SDS011;33997;53.278;9.708;2023-05-31T01:02:39;36.40;;;14.45;;
48207;SDS011;33997;53.278;9.708;2023-05-31T01:05:06;40.67;;;15.18;;
48207;SDS011;33997;53.278;9.708;2023-05-31T01:07:32;33.63;;;14.82;;
48207;SDS011;33997;53.278;9.708;2023-05-31T01:09:58;37.88;;;14.45;;
48207;SDS011;33997;53.278;9.708;2023-05-31T01:12:25;37.17;;;15.23;;
48207;SDS011;33997;53.278;9.708;2023-05-31T01:15:22;37.55;;;15.75;;
48207;SDS011;33997;53.278;9.708;2023-05-31T01:20:52;44.65;;;15.85;;
48207;SDS011;33997;53.278;9.708;2023-05-31T01:26:20;39.83;;;16.30;;
48207;SDS011;33997;53.278;9.708;2023-05-31T01:29:01;44.45;;;17.38;;
48207;SDS011;33997;53.278;9.708;2023-05-31T01:31:30;41.20;;;15.18;;
48207;SDS011;33997;53.278;9.708;2023-05-31T01:33:58;37.40;;;16.92;;
48207;SDS011;33997;53.278;9.708;2023-05-31T01:36:24;43.55;;;17.48;;
48207;SDS011;33997;53.278;9.708;2023-05-31T01:38:50;43.08;;;16.17;;
48207;SDS011;33997;53.278;9.708;2023-05-31T01:41:16;42.83;;;16.80;;
48207;SDS011;33997;53.278;9.708;2023-05-31T01:43:43;41.25;;;17.13;;
48207;SDS011;33997;53.278;9.708;2023-05-31T01:46:10;44.30;;;18.02;;
48207;SDS011;33997;53.278;9.708;2023-05-31T01:48:39;41.20;;;16.98;;
48207;SDS011;33997;53.278;9.708;2023-05-31T01:51:06;38.60;;;16.55;;
48207;SDS011;33997;53.278;9.708;2023-05-31T01:53:34;39.80;;;16.17;;
48207;SDS011;33997;53.278;9.708;2023-05-31T01:55:59;33.60;;;15.93;;
48207;SDS011;33997;53.278;9.708;2023-05-31T01:58:27;33.63;;;14.80;;
48207;SDS011;33997;53.278;9.708;2023-05-31T02:00:55;34.05;;;15.90;;
48207;SDS011;33997;53.278;9.708;2023-05-31T02:03:21;33.97;;;16.08;;
48207;SDS011;33997;53.278;9.708;2023-05-31T02:05:59;33.05;;;15.75;;
48207;SDS011;33997;53.278;9.708;2023-05-31T02:08:26;32.90;;;15.02;;
48207;SDS011;33997;53.278;9.708;2023-05-31T02:10:52;29.85;;;15.13;;
48207;SDS011;33997;53.278;9.708;2023-05-31T02:13:19;29.20;;;14.80;;
48207;SDS011;33997;53.278;9.708;2023-05-31T02:15:45;28.75;;;14.32;;
48207;SDS011;33997;53.278;9.708;2023-05-31T02:18:11;27.63;;;14.68;;
48207;SDS011;33997;53.278;9.708;2023-05-31T02:20:37;29.27;;;14.43;;
48207;SDS011;33997;53.278;9.708;2023-05-31T02:23:03;26.73;;;13.65;;
48207;SDS011;33997;53.278;9.708;2023-05-31T02:25:28;26.20;;;12.88;;
48207;SDS011;33997;53.278;9.708;2023-05-31T02:27:54;21.25;;;11.70;;
48207;SDS011;33997;53.278;9.708;2023-05-31T02:30:20;23.05;;;12.95;;
48207;SDS011;33997;53.278;9.708;2023-05-31T02:32:45;25.23;;;13.75;;
48207;SDS011;33997;53.278;9.708;2023-05-31T02:35:11;28.17;;;13.30;;
48207;SDS011;33997;53.278;9.708;2023-05-31T02:37:37;25.52;;;13.30;;
48207;SDS011;33997;53.278;9.708;2023-05-31T02:40:04;28.02;;;13.43;;
48207;SDS011;33997;53.278;9.708;2023-05-31T02:42:40;33.83;;;14.63;;
48207;SDS011;33997;53.278;9.708;2023-05-31T02:45:07;25.60;;;13.52;;
48207;SDS011;33997;53.278;9.708;2023-05-31T02:47:35;31.38;;;14.70;;
48207;SDS011;33997;53.278;9.708;2023-05-31T02:50:01;25.98;;;13.48;;
48207;SDS011;33997;53.278;9.708;2023-05-31T02:52:27;24.35;;;13.45;;
48207;SDS011;33997;53.278;9.708;2023-05-31T02:54:52;25.30;;;13.75;;
48207;SDS011;33997;53.278;9.708;2023-05-31T02:57:18;25.75;;;13.25;;
48207;SDS011;33997;53.278;9.708;2023-05-31T02:59:44;27.15;;;12.77;;
48207;SDS011;33997;53.278;9.708;2023-05-31T03:02:10;26.42;;;12.50;;
48207;SDS011;33997;53.278;9.708;2023-05-31T03:04:36;27.30;;;12.75;;
48207;SDS011;33997;53.278;9.708;2023-05-31T03:07:01;29.25;;;12.45;;
48207;SDS011;33997;53.278;9.708;2023-05-31T03:09:27;27.40;;;12.65;;
48207;SDS011;33997;53.278;9.708;2023-05-31T03:11:53;34.15;;;14.73;;
48207;SDS011;33997;53.278;9.708;2023-05-31T03:14:19;27.00;;;13.60;;
48207;SDS011;33997;53.278;9.708;2023-05-31T03:16:44;30.77;;;13.77;;
48207;SDS011;33997;53.278;9.708;2023-05-31T03:19:10;37.92;;;15.50;;
48207;SDS011;33997;53.278;9.708;2023-05-31T03:21:37;30.27;;;13.20;;
48207;SDS011;33997;53.278;9.708;2023-05-31T03:24:03;32.25;;;14.02;;
48207;SDS011;33997;53.278;9.708;2023-05-31T03:26:29;31.25;;;14.20;;
48207;SDS011;33997;53.278;9.708;2023-05-31T03:28:54;31.77;;;15.07;;
48207;SDS011;33997;53.278;9.708;2023-05-31T03:31:20;32.65;;;15.60;;
48207;SDS011;33997;53.278;9.708;2023-05-31T03:33:45;28.90;;;13.70;;
48207;SDS011;33997;53.278;9.708;2023-05-31T03:36:11;30.25;;;14.32;;
48207;SDS011;33997;53.278;9.708;2023-05-31T03:38:36;31.70;;;14.60;;
48207;SDS011;33997;53.278;9.708;2023-05-31T03:41:02;32.83;;;15.73;;
48207;SDS011;33997;53.278;9.708;2023-05-31T03:43:27;30.75;;;14.65;;
48207;SDS011;33997;53.278;9.708;2023-05-31T03:45:53;32.35;;;14.25;;
48207;SDS011;33997;53.278;9.708;2023-05-31T03:48:19;28.13;;;13.38;;
48207;SDS011;33997;53.278;9.708;2023-05-31T03:50:44;32.85;;;14.23;;
48207;SDS011;33997;53.278;9.708;2023-05-31T03:53:09;32.38;;;14.93;;
48207;SDS011;33997;53.278;9.708;2023-05-31T03:55:35;28.23;;;14.20;;
48207;SDS011;33997;53.278;9.708;2023-05-31T03:58:01;27.38;;;13.30;;
48207;SDS011;33997;53.278;9.708;2023-05-31T04:00:27;28.70;;;13.13;;
48207;SDS011;33997;53.278;9.708;2023-05-31T04:02:53;30.15;;;13.90;;
48207;SDS011;33997;53.278;9.708;2023-05-31T04:05:19;25.45;;;13.18;;
48207;SDS011;33997;53.278;9.708;2023-05-31T04:07:45;27.23;;;13.00;;
48207;SDS011;33997;53.278;9.708;2023-05-31T04:10:10;26.13;;;13.05;;
48207;SDS011;33997;53.278;9.708;2023-05-31T04:12:36;28.73;;;13.45;;
48207;SDS011;33997;53.278;9.708;2023-05-31T04:15:01;28.15;;;13.57;;
48207;SDS011;33997;53.278;9.708;2023-05-31T04:17:27;25.45;;;13.77;;
48207;SDS011;33997;53.278;9.708;2023-05-31T04:19:52;28.83;;;13.88;;
48207;SDS011;33997;53.278;9.708;2023-05-31T04:22:18;30.98;;;14.70;;
48207;SDS011;33997;53.278;9.708;2023-05-31T04:24:43;28.80;;;13.88;;
48207;SDS011;33997;53.278;9.708;2023-05-31T04:27:09;32.05;;;14.70;;
48207;SDS011;33997;53.278;9.708;2023-05-31T04:29:35;30.98;;;13.65;;
48207;SDS011;33997;53.278;9.708;2023-05-31T04:32:00;31.70;;;14.48;;
48207;SDS011;33997;53.278;9.708;2023-05-31T04:34:26;27.40;;;13.65;;
48207;SDS011;33997;53.278;9.708;2023-05-31T04:36:52;32.55;;;14.18;;
48207;SDS011;33997;53.278;9.708;2023-05-31T04:39:20;32.92;;;13.68;;
48207;SDS011;33997;53.278;9.708;2023-05-31T04:41:47;32.63;;;13.27;;
48207;SDS011;33997;53.278;9.708;2023-05-31T04:44:13;30.75;;;13.98;;
48207;SDS011;33997;53.278;9.708;2023-05-31T04:46:39;26.42;;;12.65;;
48207;SDS011;33997;53.278;9.708;2023-05-31T04:49:06;28.13;;;13.13;;
48207;SDS011;33997;53.278;9.708;2023-05-31T04:51:31;28.15;;;13.32;;
48207;SDS011;33997;53.278;9.708;2023-05-31T04:53:57;31.73;;;13.15;;
48207;SDS011;33997;53.278;9.708;2023-05-31T04:56:23;29.77;;;13.15;;
48207;SDS011;33997;53.278;9.708;2023-05-31T04:58:50;30.52;;;13.07;;
48207;SDS011;33997;53.278;9.708;2023-05-31T05:01:16;35.72;;;14.40;;
48207;SDS011;33997;53.278;9.708;2023-05-31T05:03:41;27.55;;;13.77;;
48207;SDS011;33997;53.278;9.708;2023-05-31T05:06:13;30.27;;;14.35;;
48207;SDS011;33997;53.278;9.708;2023-05-31T05:08:43;29.88;;;13.80;;
48207;SDS011;33997;53.278;9.708;2023-05-31T05:11:09;34.22;;;14.10;;
48207;SDS011;33997;53.278;9.708;2023-05-31T05:13:36;31.20;;;14.93;;
48207;SDS011;33997;53.278;9.708;2023-05-31T05:16:01;31.05;;;14.52;;
48207;SDS011;33997;53.278;9.708;2023-05-31T05:18:30;27.80;;;14.43;;
48207;SDS011;33997;53.278;9.708;2023-05-31T05:20:56;30.30;;;14.55;;
48207;SDS011;33997;53.278;9.708;2023-05-31T05:23:22;25.50;;;13.10;;
48207;SDS011;33997;53.278;9.708;2023-05-31T05:25:48;35.38;;;13.32;;
48207;SDS011;33997;53.278;9.708;2023-05-31T05:28:14;23.58;;;12.15;;
48207;SDS011;33997;53.278;9.708;2023-05-31T05:30:39;27.77;;;12.43;;
48207;SDS011;33997;53.278;9.708;2023-05-31T05:33:05;23.48;;;11.30;;
48207;SDS011;33997;53.278;9.708;2023-05-31T05:35:31;25.00;;;11.85;;
48207;SDS011;33997;53.278;9.708;2023-05-31T05:37:57;29.90;;;11.10;;
48207;SDS011;33997;53.278;9.708;2023-05-31T05:40:24;16.60;;;10.23;;
48207;SDS011;33997;53.278;9.708;2023-05-31T05:42:50;26.30;;;10.50;;
48207;SDS011;33997;53.278;9.708;2023-05-31T05:45:15;25.40;;;9.55;;
48207;SDS011;33997;53.278;9.708;2023-05-31T05:47:41;20.85;;;8.90;;
48207;SDS011;33997;53.278;9.708;2023-05-31T05:50:10;15.38;;;8.70;;
48207;SDS011;33997;53.278;9.708;2023-05-31T05:52:36;15.68;;;7.85;;
48207;SDS011;33997;53.278;9.708;2023-05-31T05:55:01;16.52;;;8.55;;
48207;SDS011;33997;53.278;9.708;2023-05-31T05:57:27;15.15;;;7.68;;
48207;SDS011;33997;53.278;9.708;2023-05-31T05:59:53;18.42;;;7.57;;
48207;SDS011;33997;53.278;9.708;2023-05-31T06:02:18;13.10;;;7.43;;
48207;SDS011;33997;53.278;9.708;2023-05-31T06:04:44;16.48;;;7.95;;
48207;SDS011;33997;53.278;9.708;2023-05-31T06:07:10;12.90;;;7.35;;
48207;SDS011;33997;53.278;9.708;2023-05-31T06:09:36;15.45;;;7.20;;
48207;SDS011;33997;53.278;9.708;2023-05-31T06:12:01;13.88;;;6.22;;
48207;SDS011;33997;53.278;9.708;2023-05-31T06:14:27;13.25;;;6.90;;
48207;SDS011;33997;53.278;9.708;2023-05-31T06:16:52;10.77;;;6.05;;
48207;SDS011;33997;53.278;9.708;2023-05-31T06:19:18;16.80;;;7.10;;
48207;SDS011;33997;53.278;9.708;2023-05-31T06:21:43;14.48;;;7.03;;
48207;SDS011;33997;53.278;9.708;2023-05-31T06:24:08;14.07;;;6.55;;
48207;SDS011;33997;53.278;9.708;2023-05-31T06:26:34;11.30;;;5.93;;
48207;SDS011;33997;53.278;9.708;2023-05-31T06:29:01;14.80;;;5.30;;
48207;SDS011;33997;53.278;9.708;2023-05-31T06:31:26;12.23;;;5.18;;
48207;SDS011;33997;53.278;9.708;2023-05-31T06:33:52;12.95;;;5.00;;
48207;SDS011;33997;53.278;9.708;2023-05-31T06:36:18;8.93;;;4.70;;
48207;SDS011;33997;53.278;9.708;2023-05-31T06:38:43;9.50;;;4.43;;
48207;SDS011;33997;53.278;9.708;2023-05-31T06:41:11;12.55;;;3.65;;
48207;SDS011;33997;53.278;9.708;2023-05-31T06:43:36;10.85;;;3.35;;
48207;SDS011;33997;53.278;9.708;2023-05-31T06:46:02;7.82;;;2.85;;
48207;SDS011;33997;53.278;9.708;2023-05-31T06:48:27;7.68;;;2.83;;
48207;SDS011;33997;53.278;9.708;2023-05-31T06:50:53;6.72;;;2.50;;
48207;SDS011;33997;53.278;9.708;2023-05-31T06:53:18;7.35;;;2.45;;
48207;SDS011;33997;53.278;9.708;2023-05-31T06:55:44;5.93;;;2.65;;
48207;SDS011;33997;53.278;9.708;2023-05-31T06:58:09;6.20;;;2.50;;
48207;SDS011;33997;53.278;9.708;2023-05-31T07:00:35;7.53;;;2.42;;
48207;SDS011;33997;53.278;9.708;2023-05-31T07:03:00;5.40;;;1.95;;
48207;SDS011;33997;53.278;9.708;2023-05-31T07:05:27;5.85;;;2.88;;
48207;SDS011;33997;53.278;9.708;2023-05-31T07:07:53;5.35;;;2.40;;
48207;SDS011;33997;53.278;9.708;2023-05-31T07:10:19;8.65;;;2.20;;
48207;SDS011;33997;53.278;9.708;2023-05-31T07:12:44;5.65;;;2.08;;
48207;SDS011;33997;53.278;9.708;2023-05-31T07:15:10;4.30;;;1.92;;
48207;SDS011;33997;53.278;9.708;2023-05-31T07:17:36;5.80;;;2.00;;
48207;SDS011;33997;53.278;9.708;2023-05-31T07:20:01;5.03;;;1.90;;
48207;SDS011;33997;53.278;9.708;2023-05-31T07:22:29;5.68;;;1.83;;
48207;SDS011;33997;53.278;9.708;2023-05-31T07:24:55;4.97;;;1.65;;
48207;SDS011;33997;53.278;9.708;2023-05-31T07:27:21;4.57;;;1.52;;
48207;SDS011;33997;53.278;9.708;2023-05-31T07:29:46;5.53;;;1.42;;
48207;SDS011;33997;53.278;9.708;2023-05-31T07:32:12;3.75;;;1.60;;
48207;SDS011;33997;53.278;9.708;2023-05-31T07:34:37;6.22;;;1.65;;
48207;SDS011;33997;53.278;9.708;2023-05-31T07:37:03;6.47;;;1.50;;
48207;SDS011;33997;53.278;9.708;2023-05-31T07:39:28;7.10;;;2.05;;
48207;SDS011;33997;53.278;9.708;2023-05-31T07:41:55;7.07;;;1.98;;
48207;SDS011;33997;53.278;9.708;2023-05-31T07:44:20;6.32;;;1.90;;
48207;SDS011;33997;53.278;9.708;2023-05-31T07:46:47;3.33;;;1.42;;
48207;SDS011;33997;53.278;9.708;2023-05-31T07:49:12;6.13;;;1.80;;
48207;SDS011;33997;53.278;9.708;2023-05-31T07:51:38;5.22;;;1.92;;
48207;SDS011;33997;53.278;9.708;2023-05-31T07:54:03;3.13;;;1.52;;
48207;SDS011;33997;53.278;9.708;2023-05-31T07:56:29;3.08;;;1.48;;
48207;SDS011;33997;53.278;9.708;2023-05-31T07:58:54;5.50;;;1.38;;
48207;SDS011;33997;53.278;9.708;2023-05-31T08:01:20;4.82;;;1.40;;
48207;SDS011;33997;53.278;9.708;2023-05-31T08:03:45;7.45;;;1.90;;
48207;SDS011;33997;53.278;9.708;2023-05-31T08:06:11;5.97;;;1.50;;
48207;SDS011;33997;53.278;9.708;2023-05-31T08:08:37;5.53;;;1.70;;
48207;SDS011;33997;53.278;9.708;2023-05-31T08:11:02;6.70;;;1.95;;
48207;SDS011;33997;53.278;9.708;2023-05-31T08:13:28;4.38;;;1.67;;
48207;SDS011;33997;53.278;9.708;2023-05-31T08:15:54;6.70;;;2.05;;
48207;SDS011;33997;53.278;9.708;2023-05-31T08:18:20;5.57;;;2.28;;
48207;SDS011;33997;53.278;9.708;2023-05-31T08:20:46;7.13;;;2.00;;
48207;SDS011;33997;53.278;9.708;2023-05-31T08:23:16;4.97;;;2.33;;
48207;SDS011;33997;53.278;9.708;2023-05-31T08:28:08;7.05;;;2.70;;
48207;SDS011;33997;53.278;9.708;2023-05-31T08:30:33;6.28;;;2.55;;
48207;SDS011;33997;53.278;9.708;2023-05-31T08:32:59;5.50;;;2.30;;
48207;SDS011;33997;53.278;9.708;2023-05-31T08:35:25;6.60;;;2.17;;
48207;SDS011;33997;53.278;9.708;2023-05-31T08:37:50;6.60;;;2.45;;
48207;SDS011;33997;53.278;9.708;2023-05-31T08:40:16;7.50;;;2.60;;
48207;SDS011;33997;53.278;9.708;2023-05-31T08:42:43;7.57;;;3.20;;
48207;SDS011;33997;53.278;9.708;2023-05-31T08:45:17;5.65;;;2.10;;
48207;SDS011;33997;53.278;9.708;2023-05-31T08:47:43;6.07;;;2.80;;
48207;SDS011;33997;53.278;9.708;2023-05-31T08:50:11;7.50;;;2.78;;
48207;SDS011;33997;53.278;9.708;2023-05-31T08:52:37;9.10;;;2.58;;
48207;SDS011;33997;53.278;9.708;2023-05-31T08:55:04;6.78;;;2.70;;
48207;SDS011;33997;53.278;9.708;2023-05-31T08:57:30;3.97;;;1.90;;
48207;SDS011;33997;53.278;9.708;2023-05-31T08:59:57;7.40;;;2.28;;
48207;SDS011;33997;53.278;9.708;2023-05-31T09:02:23;5.25;;;2.30;;
48207;SDS011;33997;53.278;9.708;2023-05-31T09:04:49;5.72;;;2.10;;
48207;SDS011;33997;53.278;9.708;2023-05-31T09:07:15;6.85;;;2.47;;
48207;SDS011;33997;53.278;9.708;2023-05-31T09:09:41;6.15;;;2.00;;
48207;SDS011;33997;53.278;9.708;2023-05-31T09:12:06;5.82;;;2.25;;
48207;SDS011;33997;53.278;9.708;2023-05-31T09:14:33;5.75;;;2.17;;
48207;SDS011;33997;53.278;9.708;2023-05-31T09:16:59;7.97;;;2.60;;
48207;SDS011;33997;53.278;9.708;2023-05-31T09:19:25;4.70;;;2.05;;
48207;SDS011;33997;53.278;9.708;2023-05-31T09:21:51;8.43;;;2.13;;
48207;SDS011;33997;53.278;9.708;2023-05-31T09:24:17;4.57;;;1.90;;
48207;SDS011;33997;53.278;9.708;2023-05-31T09:26:51;6.22;;;2.08;;
48207;SDS011;33997;53.278;9.708;2023-05-31T09:29:17;6.40;;;1.70;;
48207;SDS011;33997;53.278;9.708;2023-05-31T09:31:44;4.70;;;1.83;;
48207;SDS011;33997;53.278;9.708;2023-05-31T09:34:23;5.43;;;1.95;;
48207;SDS011;33997;53.278;9.708;2023-05-31T09:37:03;5.40;;;1.63;;
48207;SDS011;33997;53.278;9.708;2023-05-31T09:39:29;5.28;;;1.80;;
48207;SDS011;33997;53.278;9.708;2023-05-31T09:41:55;3.80;;;1.63;;
48207;SDS011;33997;53.278;9.708;2023-05-31T09:44:26;5.35;;;1.80;;
48207;SDS011;33997;53.278;9.708;2023-05-31T09:46:55;6.93;;;2.00;;
48207;SDS011;33997;53.278;9.708;2023-05-31T09:49:21;6.63;;;2.13;;
48207;SDS011;33997;53.278;9.708;2023-05-31T09:51:50;5.43;;;1.48;;
48207;SDS011;33997;53.278;9.708;2023-05-31T09:54:16;7.72;;;1.73;;
48207;SDS011;33997;53.278;9.708;2023-05-31T09:56:42;7.28;;;1.95;;
48207;SDS011;33997;53.278;9.708;2023-05-31T09:59:09;7.35;;;1.52;;
48207;SDS011;33997;53.278;9.708;2023-05-31T10:01:35;6.30;;;1.70;;
48207;SDS011;33997;53.278;9.708;2023-05-31T10:04:02;5.95;;;1.80;;
48207;SDS011;33997;53.278;9.708;2023-05-31T10:06:28;4.07;;;1.38;;
48207;SDS011;33997;53.278;9.708;2023-05-31T10:08:59;4.50;;;1.92;;
48207;SDS011;33997;53.278;9.708;2023-05-31T10:11:32;4.93;;;1.92;;
48207;SDS011;33997;53.278;9.708;2023-05-31T10:14:01;7.28;;;1.98;;
48207;SDS011;33997;53.278;9.708;2023-05-31T10:16:28;6.82;;;2.13;;
48207;SDS011;33997;53.278;9.708;2023-05-31T10:19:01;5.13;;;1.63;;
48207;SDS011;33997;53.278;9.708;2023-05-31T10:21:29;6.10;;;1.52;;
48207;SDS011;33997;53.278;9.708;2023-05-31T10:23:56;5.22;;;2.00;;
48207;SDS011;33997;53.278;9.708;2023-05-31T10:26:39;7.50;;;2.10;;
48207;SDS011;33997;53.278;9.708;2023-05-31T10:29:23;6.00;;;1.70;;
48207;SDS011;33997;53.278;9.708;2023-05-31T10:31:51;5.63;;;1.45;;
48207;SDS011;33997;53.278;9.708;2023-05-31T10:34:21;4.97;;;1.65;;
48207;SDS011;33997;53.278;9.708;2023-05-31T10:36:54;4.70;;;1.50;;
48207;SDS011;33997;53.278;9.708;2023-05-31T10:44:36;5.78;;;1.90;;
48207;SDS011;33997;53.278;9.708;2023-05-31T10:47:10;9.88;;;2.15;;
48207;SDS011;33997;53.278;9.708;2023-05-31T10:49:38;6.00;;;2.08;;
48207;SDS011;33997;53.278;9.708;2023-05-31T10:52:08;10.18;;;2.40;;
48207;SDS011;33997;53.278;9.708;2023-05-31T10:54:34;6.47;;;2.10;;
48207;SDS011;33997;53.278;9.708;2023-05-31T10:57:01;6.80;;;2.50;;
48207;SDS011;33997;53.278;9.708;2023-05-31T10:59:29;7.45;;;2.40;;
48207;SDS011;33997;53.278;9.708;2023-05-31T11:02:05;4.90;;;1.85;;
48207;SDS011;33997;53.278;9.708;2023-05-31T11:04:31;7.82;;;2.20;;
48207;SDS011;33997;53.278;9.708;2023-05-31T11:07:18;6.22;;;1.88;;
48207;SDS011;33997;53.278;9.708;2023-05-31T11:09:57;5.05;;;1.70;;
48207;SDS011;33997;53.278;9.708;2023-05-31T11:12:34;8.98;;;2.03;;
48207;SDS011;33997;53.278;9.708;2023-05-31T11:15:04;7.60;;;1.83;;
48207;SDS011;33997;53.278;9.708;2023-05-31T11:17:54;4.82;;;1.73;;
48207;SDS011;33997;53.278;9.708;2023-05-31T11:20:20;8.57;;;1.88;;
48207;SDS011;33997;53.278;9.708;2023-05-31T11:22:47;7.32;;;1.75;;
48207;SDS011;33997;53.278;9.708;2023-05-31T11:25:19;3.55;;;1.58;;
48207;SDS011;33997;53.278;9.708;2023-05-31T11:27:46;5.38;;;1.20;;
48207;SDS011;33997;53.278;9.708;2023-05-31T11:30:13;8.35;;;1.77;;
48207;SDS011;33997;53.278;9.708;2023-05-31T11:35:14;7.22;;;1.45;;
48207;SDS011;33997;53.278;9.708;2023-05-31T11:37:41;3.80;;;1.42;;
48207;SDS011;33997;53.278;9.708;2023-05-31T11:40:09;6.20;;;1.65;;
48207;SDS011;33997;53.278;9.708;2023-05-31T11:42:42;5.65;;;1.42;;
48207;SDS011;33997;53.278;9.708;2023-05-31T11:45:09;3.35;;;1.30;;
48207;SDS011;33997;53.278;9.708;2023-05-31T11:50:17;4.63;;;1.30;;
48207;SDS011;33997;53.278;9.708;2023-05-31T11:52:44;3.83;;;1.40;;
48207;SDS011;33997;53.278;9.708;2023-05-31T11:55:10;3.83;;;1.30;;
48207;SDS011;33997;53.278;9.708;2023-05-31T11:57:43;6.32;;;1.40;;
48207;SDS011;33997;53.278;9.708;2023-05-31T12:00:10;3.50;;;1.10;;
48207;SDS011;33997;53.278;9.708;2023-05-31T12:02:39;4.18;;;1.48;;
48207;SDS011;33997;53.278;9.708;2023-05-31T12:05:05;5.70;;;1.48;;
48207;SDS011;33997;53.278;9.708;2023-05-31T12:07:31;5.75;;;1.52;;
48207;SDS011;33997;53.278;9.708;2023-05-31T12:09:57;3.38;;;1.17;;
48207;SDS011;33997;53.278;9.708;2023-05-31T12:12:24;3.20;;;1.42;;
48207;SDS011;33997;53.278;9.708;2023-05-31T12:14:50;5.68;;;1.30;;
48207;SDS011;33997;53.278;9.708;2023-05-31T12:17:17;3.22;;;1.40;;
48207;SDS011;33997;53.278;9.708;2023-05-31T12:19:43;3.20;;;1.20;;
48207;SDS011;33997;53.278;9.708;2023-05-31T12:22:11;6.35;;;1.88;;
48207;SDS011;33997;53.278;9.708;2023-05-31T12:24:50;4.20;;;1.27;;
48207;SDS011;33997;53.278;9.708;2023-05-31T12:27:16;5.72;;;1.48;;
48207;SDS011;33997;53.278;9.708;2023-05-31T12:29:44;3.63;;;1.40;;
48207;SDS011;33997;53.278;9.708;2023-05-31T12:32:09;7.07;;;1.55;;
48207;SDS011;33997;53.278;9.708;2023-05-31T12:34:35;5.60;;;2.10;;
48207;SDS011;33997;53.278;9.708;2023-05-31T12:37:05;4.32;;;1.67;;
48207;SDS011;33997;53.278;9.708;2023-05-31T12:39:33;8.10;;;1.90;;
48207;SDS011;33997;53.278;9.708;2023-05-31T12:41:59;5.68;;;1.70;;
48207;SDS011;33997;53.278;9.708;2023-05-31T12:44:26;4.68;;;1.40;;
48207;SDS011;33997;53.278;9.708;2023-05-31T12:46:59;8.00;;;1.63;;
48207;SDS011;33997;53.278;9.708;2023-05-31T12:49:27;8.35;;;1.67;;
48207;SDS011;33997;53.278;9.708;2023-05-31T12:52:04;6.30;;;1.60;;
48207;SDS011;33997;53.278;9.708;2023-05-31T12:54:31;4.13;;;1.13;;
48207;SDS011;33997;53.278;9.708;2023-05-31T12:56:58;5.60;;;1.13;;
48207;SDS011;33997;53.278;9.708;2023-05-31T12:59:26;4.45;;;1.25;;
48207;SDS011;33997;53.278;9.708;2023-05-31T13:01:53;3.67;;;1.08;;
48207;SDS011;33997;53.278;9.708;2023-05-31T13:04:20;4.22;;;1.20;;
48207;SDS011;33997;53.278;9.708;2023-05-31T13:06:45;6.38;;;1.73;;
48207;SDS011;33997;53.278;9.708;2023-05-31T13:09:11;4.65;;;1.13;;
48207;SDS011;33997;53.278;9.708;2023-05-31T13:11:37;7.00;;;1.45;;
48207;SDS011;33997;53.278;9.708;2023-05-31T13:14:04;3.67;;;0.93;;
48207;SDS011;33997;53.278;9.708;2023-05-31T13:16:30;13.98;;;2.85;;
48207;SDS011;33997;53.278;9.708;2023-05-31T13:18:57;13.27;;;3.50;;
48207;SDS011;33997;53.278;9.708;2023-05-31T13:21:23;12.98;;;2.65;;
48207;SDS011;33997;53.278;9.708;2023-05-31T13:23:49;5.35;;;1.60;;
48207;SDS011;33997;53.278;9.708;2023-05-31T13:26:14;6.85;;;1.42;;
48207;SDS011;33997;53.278;9.708;2023-05-31T13:28:40;9.32;;;2.03;;
48207;SDS011;33997;53.278;9.708;2023-05-31T13:31:05;4.43;;;1.00;;
48207;SDS011;33997;53.278;9.708;2023-05-31T13:33:31;6.70;;;1.08;;
48207;SDS011;33997;53.278;9.708;2023-05-31T13:35:58;3.63;;;0.90;;
48207;SDS011;33997;53.278;9.708;2023-05-31T13:38:23;3.15;;;0.90;;
48207;SDS011;33997;53.278;9.708;2023-05-31T13:40:49;3.75;;;0.75;;
48207;SDS011;33997;53.278;9.708;2023-05-31T13:43:16;3.80;;;0.68;;
48207;SDS011;33997;53.278;9.708;2023-05-31T13:45:46;5.75;;;0.93;;
48207;SDS011;33997;53.278;9.708;2023-05-31T13:48:12;3.67;;;1.00;;
48207;SDS011;33997;53.278;9.708;2023-05-31T13:50:40;6.13;;;0.82;;
48207;SDS011;33997;53.278;9.708;2023-05-31T13:53:06;4.75;;;0.77;;
48207;SDS011;33997;53.278;9.708;2023-05-31T13:55:32;3.95;;;0.70;;
48207;SDS011;33997;53.278;9.708;2023-05-31T13:57:58;3.05;;;0.68;;
48207;SDS011;33997;53.278;9.708;2023-05-31T14:00:24;3.85;;;0.90;;
48207;SDS011;33997;53.278;9.708;2023-05-31T14:02:49;4.05;;;0.85;;
48207;SDS011;33997;53.278;9.708;2023-05-31T14:05:16;11.52;;;2.17;;
48207;SDS011;33997;53.278;9.708;2023-05-31T14:07:42;4.20;;;1.20;;
48207;SDS011;33997;53.278;9.708;2023-05-31T14:10:08;124.38;;;41.35;;
48207;SDS011;33997;53.278;9.708;2023-05-31T14:12:34;7.32;;;2.08;;
48207;SDS011;33997;53.278;9.708;2023-05-31T14:14:59;7.65;;;1.35;;
48207;SDS011;33997;53.278;9.708;2023-05-31T14:17:25;4.35;;;0.88;;
48207;SDS011;33997;53.278;9.708;2023-05-31T14:19:51;43.08;;;3.78;;
48207;SDS011;33997;53.278;9.708;2023-05-31T14:22:16;4.13;;;0.93;;
48207;SDS011;33997;53.278;9.708;2023-05-31T14:24:42;4.72;;;0.75;;
48207;SDS011;33997;53.278;9.708;2023-05-31T14:27:07;2.72;;;0.80;;
48207;SDS011;33997;53.278;9.708;2023-05-31T14:29:33;2.20;;;0.68;;
48207;SDS011;33997;53.278;9.708;2023-05-31T14:31:58;3.65;;;0.95;;
48207;SDS011;33997;53.278;9.708;2023-05-31T14:34:24;5.25;;;1.05;;
48207;SDS011;33997;53.278;9.708;2023-05-31T14:36:50;2.78;;;0.90;;
48207;SDS011;33997;53.278;9.708;2023-05-31T14:39:16;2.10;;;0.68;;
48207;SDS011;33997;53.278;9.708;2023-05-31T14:41:41;2.60;;;0.82;;
48207;SDS011;33997;53.278;9.708;2023-05-31T14:44:07;4.63;;;0.85;;
48207;SDS011;33997;53.278;9.708;2023-05-31T14:46:32;4.13;;;0.90;;
48207;SDS011;33997;53.278;9.708;2023-05-31T14:48:58;5.10;;;1.17;;
48207;SDS011;33997;53.278;9.708;2023-05-31T14:51:23;3.20;;;0.90;;
48207;SDS011;33997;53.278;9.708;2023-05-31T14:53:49;3.05;;;0.73;;